sensor_id;sensor_type;location;lat;lon;timestamp;P1;durP1;ratioP1;P2;durP2;ratioP2
5995;SDS011;3026;53.612;7.278;2023-05-24T00:01:06;14.13;;;3.80;;
5995;SDS011;3026;53.612;7.278;2023-05-24T00:03:33;13.87;;;4.30;;
5995;SDS011;3026;53.612;7.278;2023-05-24T00:06:03;19.67;;;4.30;;
5995;SDS011;3026;53.612;7.278;2023-05-24T00:08:32;19.73;;;5.07;;
5995;SDS011;3026;53.612;7.278;2023-05-24T00:10:59;12.43;;;4.00;;
5995;SDS011;3026;53.612;7.278;2023-05-24T00:13:26;18.17;;;4.60;;
5995;SDS011;3026;53.612;7.278;2023-05-24T00:15:53;19.63;;;4.83;;
5995;SDS011;3026;53.612;7.278;2023-05-24T00:18:20;16.77;;;4.57;;
5995;SDS011;3026;53.612;7.278;2023-05-24T00:20:47;21.77;;;5.03;;
5995;SDS011;3026;53.612;7.278;2023-05-24T00:23:15;15.37;;;4.77;;
5995;SDS011;3026;53.612;7.278;2023-05-24T00:25:44;14.40;;;4.10;;
5995;SDS011;3026;53.612;7.278;2023-05-24T00:28:10;18.17;;;4.47;;
5995;SDS011;3026;53.612;7.278;2023-05-24T00:30:37;15.40;;;4.27;;
5995;SDS011;3026;53.612;7.278;2023-05-24T00:33:04;15.90;;;4.73;;
5995;SDS011;3026;53.612;7.278;2023-05-24T00:35:31;16.93;;;4.23;;
5995;SDS011;3026;53.612;7.278;2023-05-24T00:37:57;17.30;;;4.13;;
5995;SDS011;3026;53.612;7.278;2023-05-24T00:40:24;14.10;;;3.93;;
5995;SDS011;3026;53.612;7.278;2023-05-24T00:42:52;13.83;;;4.20;;
5995;SDS011;3026;53.612;7.278;2023-05-24T00:45:19;18.57;;;4.57;;
5995;SDS011;3026;53.612;7.278;2023-05-24T00:47:46;16.33;;;4.33;;
5995;SDS011;3026;53.612;7.278;2023-05-24T00:50:13;23.77;;;4.87;;
5995;SDS011;3026;53.612;7.278;2023-05-24T00:52:41;19.03;;;3.77;;
5995;SDS011;3026;53.612;7.278;2023-05-24T00:55:08;18.30;;;4.27;;
5995;SDS011;3026;53.612;7.278;2023-05-24T00:57:36;16.73;;;4.03;;
5995;SDS011;3026;53.612;7.278;2023-05-24T01:00:05;14.00;;;4.33;;
5995;SDS011;3026;53.612;7.278;2023-05-24T01:02:32;15.67;;;3.80;;
5995;SDS011;3026;53.612;7.278;2023-05-24T01:04:59;21.27;;;4.53;;
5995;SDS011;3026;53.612;7.278;2023-05-24T01:07:28;17.47;;;4.13;;
5995;SDS011;3026;53.612;7.278;2023-05-24T01:10:03;15.33;;;3.30;;
5995;SDS011;3026;53.612;7.278;2023-05-24T01:12:38;20.67;;;3.77;;
5995;SDS011;3026;53.612;7.278;2023-05-24T01:15:17;23.73;;;5.10;;
5995;SDS011;3026;53.612;7.278;2023-05-24T01:17:50;17.57;;;4.13;;
5995;SDS011;3026;53.612;7.278;2023-05-24T01:20:25;14.27;;;4.07;;
5995;SDS011;3026;53.612;7.278;2023-05-24T01:23:17;17.60;;;4.77;;
5995;SDS011;3026;53.612;7.278;2023-05-24T01:26:05;19.40;;;4.13;;
5995;SDS011;3026;53.612;7.278;2023-05-24T01:28:44;20.80;;;4.77;;
5995;SDS011;3026;53.612;7.278;2023-05-24T01:31:14;15.30;;;3.37;;
5995;SDS011;3026;53.612;7.278;2023-05-24T01:33:42;15.30;;;3.80;;
5995;SDS011;3026;53.612;7.278;2023-05-24T01:36:09;19.10;;;4.17;;
5995;SDS011;3026;53.612;7.278;2023-05-24T01:38:36;15.47;;;4.50;;
5995;SDS011;3026;53.612;7.278;2023-05-24T01:41:05;15.03;;;3.97;;
5995;SDS011;3026;53.612;7.278;2023-05-24T01:43:39;18.33;;;4.03;;
5995;SDS011;3026;53.612;7.278;2023-05-24T01:46:12;16.47;;;3.97;;
5995;SDS011;3026;53.612;7.278;2023-05-24T01:51:37;14.90;;;4.00;;
5995;SDS011;3026;53.612;7.278;2023-05-24T01:54:09;16.97;;;4.10;;
5995;SDS011;3026;53.612;7.278;2023-05-24T01:56:39;12.80;;;3.53;;
5995;SDS011;3026;53.612;7.278;2023-05-24T01:59:08;11.97;;;3.60;;
5995;SDS011;3026;53.612;7.278;2023-05-24T02:01:38;16.43;;;5.30;;
5995;SDS011;3026;53.612;7.278;2023-05-24T02:04:06;22.23;;;5.20;;
5995;SDS011;3026;53.612;7.278;2023-05-24T02:06:32;10.67;;;3.13;;
5995;SDS011;3026;53.612;7.278;2023-05-24T02:09:00;12.10;;;3.63;;
5995;SDS011;3026;53.612;7.278;2023-05-24T02:11:26;18.03;;;5.40;;
5995;SDS011;3026;53.612;7.278;2023-05-24T02:13:53;12.33;;;3.63;;
5995;SDS011;3026;53.612;7.278;2023-05-24T02:16:20;13.83;;;3.77;;
5995;SDS011;3026;53.612;7.278;2023-05-24T02:18:50;17.10;;;4.03;;
5995;SDS011;3026;53.612;7.278;2023-05-24T02:21:17;16.97;;;3.90;;
5995;SDS011;3026;53.612;7.278;2023-05-24T02:23:43;22.37;;;4.83;;
5995;SDS011;3026;53.612;7.278;2023-05-24T02:26:10;18.17;;;4.87;;
5995;SDS011;3026;53.612;7.278;2023-05-24T02:28:37;11.17;;;3.70;;
5995;SDS011;3026;53.612;7.278;2023-05-24T02:31:04;14.57;;;4.30;;
5995;SDS011;3026;53.612;7.278;2023-05-24T02:33:32;20.17;;;4.37;;
5995;SDS011;3026;53.612;7.278;2023-05-24T02:36:00;17.53;;;3.97;;
5995;SDS011;3026;53.612;7.278;2023-05-24T02:38:27;14.37;;;4.17;;
5995;SDS011;3026;53.612;7.278;2023-05-24T02:40:54;17.93;;;5.23;;
5995;SDS011;3026;53.612;7.278;2023-05-24T02:43:21;13.50;;;4.10;;
5995;SDS011;3026;53.612;7.278;2023-05-24T02:45:47;12.37;;;3.53;;
5995;SDS011;3026;53.612;7.278;2023-05-24T02:48:14;13.87;;;4.30;;
5995;SDS011;3026;53.612;7.278;2023-05-24T02:50:41;14.93;;;4.70;;
5995;SDS011;3026;53.612;7.278;2023-05-24T02:53:09;12.33;;;4.10;;
5995;SDS011;3026;53.612;7.278;2023-05-24T02:55:36;18.40;;;4.50;;
5995;SDS011;3026;53.612;7.278;2023-05-24T02:58:03;14.03;;;4.00;;
5995;SDS011;3026;53.612;7.278;2023-05-24T03:00:30;17.27;;;5.27;;
5995;SDS011;3026;53.612;7.278;2023-05-24T03:02:57;12.13;;;3.50;;
5995;SDS011;3026;53.612;7.278;2023-05-24T03:05:27;19.80;;;4.53;;
5995;SDS011;3026;53.612;7.278;2023-05-24T03:07:54;12.63;;;3.73;;
5995;SDS011;3026;53.612;7.278;2023-05-24T03:10:22;14.43;;;4.30;;
5995;SDS011;3026;53.612;7.278;2023-05-24T03:12:49;17.70;;;4.10;;
5995;SDS011;3026;53.612;7.278;2023-05-24T03:15:15;17.33;;;4.50;;
5995;SDS011;3026;53.612;7.278;2023-05-24T03:17:42;16.83;;;4.83;;
5995;SDS011;3026;53.612;7.278;2023-05-24T03:20:09;14.63;;;4.63;;
5995;SDS011;3026;53.612;7.278;2023-05-24T03:22:37;26.17;;;5.13;;
5995;SDS011;3026;53.612;7.278;2023-05-24T03:25:04;24.00;;;4.53;;
5995;SDS011;3026;53.612;7.278;2023-05-24T03:27:34;20.07;;;4.33;;
5995;SDS011;3026;53.612;7.278;2023-05-24T03:30:01;14.90;;;4.37;;
5995;SDS011;3026;53.612;7.278;2023-05-24T03:32:28;14.10;;;3.57;;
5995;SDS011;3026;53.612;7.278;2023-05-24T03:34:54;19.20;;;4.70;;
5995;SDS011;3026;53.612;7.278;2023-05-24T03:37:23;19.10;;;4.57;;
5995;SDS011;3026;53.612;7.278;2023-05-24T03:39:50;20.80;;;4.70;;
5995;SDS011;3026;53.612;7.278;2023-05-24T03:42:17;22.30;;;4.97;;
5995;SDS011;3026;53.612;7.278;2023-05-24T03:44:46;20.83;;;4.60;;
5995;SDS011;3026;53.612;7.278;2023-05-24T03:47:13;19.20;;;4.50;;
5995;SDS011;3026;53.612;7.278;2023-05-24T03:49:49;22.23;;;5.13;;
5995;SDS011;3026;53.612;7.278;2023-05-24T03:52:16;13.77;;;4.20;;
5995;SDS011;3026;53.612;7.278;2023-05-24T03:54:43;18.47;;;4.80;;
5995;SDS011;3026;53.612;7.278;2023-05-24T03:57:10;17.50;;;3.77;;
5995;SDS011;3026;53.612;7.278;2023-05-24T03:59:37;19.87;;;4.60;;
5995;SDS011;3026;53.612;7.278;2023-05-24T04:02:05;17.40;;;4.10;;
5995;SDS011;3026;53.612;7.278;2023-05-24T04:04:32;19.07;;;4.77;;
5995;SDS011;3026;53.612;7.278;2023-05-24T04:07:01;20.83;;;4.57;;
5995;SDS011;3026;53.612;7.278;2023-05-24T04:09:27;22.13;;;5.17;;
5995;SDS011;3026;53.612;7.278;2023-05-24T04:11:54;17.50;;;4.40;;
5995;SDS011;3026;53.612;7.278;2023-05-24T04:14:21;26.40;;;5.03;;
5995;SDS011;3026;53.612;7.278;2023-05-24T04:16:48;17.23;;;4.87;;
5995;SDS011;3026;53.612;7.278;2023-05-24T04:19:17;16.90;;;3.77;;
5995;SDS011;3026;53.612;7.278;2023-05-24T04:21:44;15.60;;;4.77;;
5995;SDS011;3026;53.612;7.278;2023-05-24T04:24:10;16.80;;;5.83;;
5995;SDS011;3026;53.612;7.278;2023-05-24T04:26:37;19.20;;;4.43;;
5995;SDS011;3026;53.612;7.278;2023-05-24T04:29:04;10.87;;;4.10;;
5995;SDS011;3026;53.612;7.278;2023-05-24T04:31:31;19.43;;;4.53;;
5995;SDS011;3026;53.612;7.278;2023-05-24T04:33:59;16.13;;;4.60;;
5995;SDS011;3026;53.612;7.278;2023-05-24T04:36:27;15.77;;;4.83;;
5995;SDS011;3026;53.612;7.278;2023-05-24T04:38:55;21.20;;;4.17;;
5995;SDS011;3026;53.612;7.278;2023-05-24T04:41:27;16.10;;;4.23;;
5995;SDS011;3026;53.612;7.278;2023-05-24T04:43:56;13.83;;;3.97;;
5995;SDS011;3026;53.612;7.278;2023-05-24T04:46:23;15.30;;;4.30;;
5995;SDS011;3026;53.612;7.278;2023-05-24T04:48:51;18.57;;;5.03;;
5995;SDS011;3026;53.612;7.278;2023-05-24T04:51:18;18.43;;;4.57;;
5995;SDS011;3026;53.612;7.278;2023-05-24T04:53:46;17.90;;;3.90;;
5995;SDS011;3026;53.612;7.278;2023-05-24T04:56:13;13.40;;;4.87;;
5995;SDS011;3026;53.612;7.278;2023-05-24T04:58:41;19.83;;;4.83;;
5995;SDS011;3026;53.612;7.278;2023-05-24T05:01:07;10.73;;;3.57;;
5995;SDS011;3026;53.612;7.278;2023-05-24T05:03:34;21.43;;;4.23;;
5995;SDS011;3026;53.612;7.278;2023-05-24T05:06:01;15.37;;;4.80;;
5995;SDS011;3026;53.612;7.278;2023-05-24T05:08:28;22.47;;;4.70;;
5995;SDS011;3026;53.612;7.278;2023-05-24T05:10:56;16.43;;;4.57;;
5995;SDS011;3026;53.612;7.278;2023-05-24T05:13:23;20.90;;;4.43;;
5995;SDS011;3026;53.612;7.278;2023-05-24T05:15:50;23.83;;;4.80;;
5995;SDS011;3026;53.612;7.278;2023-05-24T05:18:17;23.53;;;5.07;;
5995;SDS011;3026;53.612;7.278;2023-05-24T05:20:43;20.37;;;4.27;;
5995;SDS011;3026;53.612;7.278;2023-05-24T05:23:10;16.10;;;4.40;;
5995;SDS011;3026;53.612;7.278;2023-05-24T05:25:37;15.57;;;4.03;;
5995;SDS011;3026;53.612;7.278;2023-05-24T05:28:05;20.70;;;5.40;;
5995;SDS011;3026;53.612;7.278;2023-05-24T05:30:32;20.63;;;4.27;;
5995;SDS011;3026;53.612;7.278;2023-05-24T05:32:59;16.93;;;3.83;;
5995;SDS011;3026;53.612;7.278;2023-05-24T05:35:25;12.40;;;3.50;;
5995;SDS011;3026;53.612;7.278;2023-05-24T05:37:52;15.93;;;4.93;;
5995;SDS011;3026;53.612;7.278;2023-05-24T05:40:19;16.50;;;3.83;;
5995;SDS011;3026;53.612;7.278;2023-05-24T05:42:46;18.37;;;4.57;;
5995;SDS011;3026;53.612;7.278;2023-05-24T05:45:15;14.57;;;4.43;;
5995;SDS011;3026;53.612;7.278;2023-05-24T05:47:42;18.97;;;4.37;;
5995;SDS011;3026;53.612;7.278;2023-05-24T05:50:09;17.50;;;4.27;;
5995;SDS011;3026;53.612;7.278;2023-05-24T05:52:36;19.63;;;4.10;;
5995;SDS011;3026;53.612;7.278;2023-05-24T05:55:03;14.07;;;4.00;;
5995;SDS011;3026;53.612;7.278;2023-05-24T05:57:31;12.37;;;4.33;;
5995;SDS011;3026;53.612;7.278;2023-05-24T05:59:57;16.33;;;4.43;;
5995;SDS011;3026;53.612;7.278;2023-05-24T06:02:26;10.43;;;3.77;;
5995;SDS011;3026;53.612;7.278;2023-05-24T06:04:53;16.63;;;4.00;;
5995;SDS011;3026;53.612;7.278;2023-05-24T06:07:20;17.63;;;4.00;;
5995;SDS011;3026;53.612;7.278;2023-05-24T06:09:47;13.23;;;3.53;;
5995;SDS011;3026;53.612;7.278;2023-05-24T06:12:13;19.30;;;4.50;;
5995;SDS011;3026;53.612;7.278;2023-05-24T06:14:41;17.17;;;4.30;;
5995;SDS011;3026;53.612;7.278;2023-05-24T06:17:08;16.83;;;4.40;;
5995;SDS011;3026;53.612;7.278;2023-05-24T06:19:37;18.60;;;4.10;;
5995;SDS011;3026;53.612;7.278;2023-05-24T06:22:04;16.70;;;4.13;;
5995;SDS011;3026;53.612;7.278;2023-05-24T06:24:31;22.10;;;4.20;;
5995;SDS011;3026;53.612;7.278;2023-05-24T06:26:58;20.40;;;4.33;;
5995;SDS011;3026;53.612;7.278;2023-05-24T06:29:25;17.07;;;4.47;;
5995;SDS011;3026;53.612;7.278;2023-05-24T06:31:52;18.17;;;3.67;;
5995;SDS011;3026;53.612;7.278;2023-05-24T06:34:19;14.10;;;4.20;;
5995;SDS011;3026;53.612;7.278;2023-05-24T06:36:47;18.43;;;4.50;;
5995;SDS011;3026;53.612;7.278;2023-05-24T06:39:15;12.67;;;3.83;;
5995;SDS011;3026;53.612;7.278;2023-05-24T06:41:43;14.80;;;4.43;;
5995;SDS011;3026;53.612;7.278;2023-05-24T06:44:10;16.30;;;4.37;;
5995;SDS011;3026;53.612;7.278;2023-05-24T06:46:37;21.93;;;4.37;;
5995;SDS011;3026;53.612;7.278;2023-05-24T06:49:04;12.80;;;3.40;;
5995;SDS011;3026;53.612;7.278;2023-05-24T06:51:31;11.53;;;3.83;;
5995;SDS011;3026;53.612;7.278;2023-05-24T06:54:00;14.87;;;3.97;;
5995;SDS011;3026;53.612;7.278;2023-05-24T06:56:26;21.53;;;4.10;;
5995;SDS011;3026;53.612;7.278;2023-05-24T06:58:54;17.00;;;4.40;;
5995;SDS011;3026;53.612;7.278;2023-05-24T07:01:20;12.90;;;4.30;;
5995;SDS011;3026;53.612;7.278;2023-05-24T07:03:48;14.17;;;4.83;;
5995;SDS011;3026;53.612;7.278;2023-05-24T07:06:14;9.67;;;3.13;;
5995;SDS011;3026;53.612;7.278;2023-05-24T07:08:42;11.37;;;3.70;;
5995;SDS011;3026;53.612;7.278;2023-05-24T07:11:10;11.57;;;3.03;;
5995;SDS011;3026;53.612;7.278;2023-05-24T07:13:37;13.53;;;3.47;;
5995;SDS011;3026;53.612;7.278;2023-05-24T07:16:05;12.20;;;3.30;;
5995;SDS011;3026;53.612;7.278;2023-05-24T07:18:32;20.00;;;3.50;;
5995;SDS011;3026;53.612;7.278;2023-05-24T07:20:58;11.30;;;3.87;;
5995;SDS011;3026;53.612;7.278;2023-05-24T07:23:25;10.73;;;3.20;;
5995;SDS011;3026;53.612;7.278;2023-05-24T07:25:52;14.60;;;3.70;;
5995;SDS011;3026;53.612;7.278;2023-05-24T07:28:20;11.83;;;3.53;;
5995;SDS011;3026;53.612;7.278;2023-05-24T07:30:47;15.90;;;3.63;;
5995;SDS011;3026;53.612;7.278;2023-05-24T07:33:14;12.23;;;4.27;;
5995;SDS011;3026;53.612;7.278;2023-05-24T07:35:41;11.70;;;2.90;;
5995;SDS011;3026;53.612;7.278;2023-05-24T07:38:09;14.20;;;4.10;;
5995;SDS011;3026;53.612;7.278;2023-05-24T07:40:36;15.43;;;4.00;;
5995;SDS011;3026;53.612;7.278;2023-05-24T07:43:03;13.43;;;2.97;;
5995;SDS011;3026;53.612;7.278;2023-05-24T07:45:32;14.00;;;3.70;;
5995;SDS011;3026;53.612;7.278;2023-05-24T07:47:59;8.77;;;3.10;;
5995;SDS011;3026;53.612;7.278;2023-05-24T07:50:26;11.90;;;3.40;;
5995;SDS011;3026;53.612;7.278;2023-05-24T07:52:53;12.03;;;2.97;;
5995;SDS011;3026;53.612;7.278;2023-05-24T07:55:21;8.33;;;3.00;;
5995;SDS011;3026;53.612;7.278;2023-05-24T07:57:48;13.30;;;3.53;;
5995;SDS011;3026;53.612;7.278;2023-05-24T08:00:15;11.60;;;3.13;;
5995;SDS011;3026;53.612;7.278;2023-05-24T08:02:45;13.57;;;3.40;;
5995;SDS011;3026;53.612;7.278;2023-05-24T08:05:12;12.80;;;3.87;;
5995;SDS011;3026;53.612;7.278;2023-05-24T08:07:39;11.77;;;3.10;;
5995;SDS011;3026;53.612;7.278;2023-05-24T08:10:08;13.47;;;3.63;;
5995;SDS011;3026;53.612;7.278;2023-05-24T08:12:36;15.50;;;3.00;;
5995;SDS011;3026;53.612;7.278;2023-05-24T08:15:03;13.97;;;3.23;;
5995;SDS011;3026;53.612;7.278;2023-05-24T08:17:31;13.53;;;3.77;;
5995;SDS011;3026;53.612;7.278;2023-05-24T08:19:59;12.60;;;3.63;;
5995;SDS011;3026;53.612;7.278;2023-05-24T08:22:26;11.17;;;2.80;;
5995;SDS011;3026;53.612;7.278;2023-05-24T08:24:53;10.87;;;3.20;;
5995;SDS011;3026;53.612;7.278;2023-05-24T08:27:20;9.53;;;3.10;;
5995;SDS011;3026;53.612;7.278;2023-05-24T08:29:46;14.73;;;3.53;;
5995;SDS011;3026;53.612;7.278;2023-05-24T08:32:13;10.90;;;2.93;;
5995;SDS011;3026;53.612;7.278;2023-05-24T08:34:40;10.00;;;3.57;;
5995;SDS011;3026;53.612;7.278;2023-05-24T08:37:10;9.03;;;2.90;;
5995;SDS011;3026;53.612;7.278;2023-05-24T08:39:39;15.47;;;3.10;;
5995;SDS011;3026;53.612;7.278;2023-05-24T08:42:06;13.23;;;4.20;;
5995;SDS011;3026;53.612;7.278;2023-05-24T08:44:34;14.27;;;3.20;;
5995;SDS011;3026;53.612;7.278;2023-05-24T08:47:06;9.07;;;3.13;;
5995;SDS011;3026;53.612;7.278;2023-05-24T08:49:34;11.77;;;4.30;;
5995;SDS011;3026;53.612;7.278;2023-05-24T08:52:03;15.20;;;3.77;;
5995;SDS011;3026;53.612;7.278;2023-05-24T08:54:33;11.43;;;3.10;;
5995;SDS011;3026;53.612;7.278;2023-05-24T08:57:00;15.63;;;3.67;;
5995;SDS011;3026;53.612;7.278;2023-05-24T08:59:27;11.23;;;3.60;;
5995;SDS011;3026;53.612;7.278;2023-05-24T09:01:54;12.90;;;3.33;;
5995;SDS011;3026;53.612;7.278;2023-05-24T09:04:25;16.87;;;4.03;;
5995;SDS011;3026;53.612;7.278;2023-05-24T09:06:53;10.90;;;3.90;;
5995;SDS011;3026;53.612;7.278;2023-05-24T09:09:21;8.70;;;3.10;;
5995;SDS011;3026;53.612;7.278;2023-05-24T09:11:55;14.50;;;3.10;;
5995;SDS011;3026;53.612;7.278;2023-05-24T09:14:24;11.67;;;3.30;;
5995;SDS011;3026;53.612;7.278;2023-05-24T09:16:51;8.97;;;2.97;;
5995;SDS011;3026;53.612;7.278;2023-05-24T09:19:19;13.47;;;2.77;;
5995;SDS011;3026;53.612;7.278;2023-05-24T09:21:46;9.27;;;2.80;;
5995;SDS011;3026;53.612;7.278;2023-05-24T09:24:14;16.37;;;3.60;;
5995;SDS011;3026;53.612;7.278;2023-05-24T09:26:41;10.77;;;3.10;;
5995;SDS011;3026;53.612;7.278;2023-05-24T09:29:09;16.00;;;3.40;;
5995;SDS011;3026;53.612;7.278;2023-05-24T09:31:37;13.47;;;3.00;;
5995;SDS011;3026;53.612;7.278;2023-05-24T09:34:08;9.93;;;3.57;;
5995;SDS011;3026;53.612;7.278;2023-05-24T09:36:35;12.20;;;3.07;;
5995;SDS011;3026;53.612;7.278;2023-05-24T09:39:07;12.00;;;3.40;;
5995;SDS011;3026;53.612;7.278;2023-05-24T09:41:35;11.07;;;3.20;;
5995;SDS011;3026;53.612;7.278;2023-05-24T09:44:02;11.93;;;3.67;;
5995;SDS011;3026;53.612;7.278;2023-05-24T09:46:35;10.13;;;3.37;;
5995;SDS011;3026;53.612;7.278;2023-05-24T09:49:03;14.37;;;3.90;;
5995;SDS011;3026;53.612;7.278;2023-05-24T09:51:31;10.97;;;3.23;;
5995;SDS011;3026;53.612;7.278;2023-05-24T09:54:02;9.40;;;3.97;;
5995;SDS011;3026;53.612;7.278;2023-05-24T09:56:31;12.67;;;3.07;;
5995;SDS011;3026;53.612;7.278;2023-05-24T09:59:03;11.50;;;3.93;;
5995;SDS011;3026;53.612;7.278;2023-05-24T10:01:32;9.97;;;2.80;;
5995;SDS011;3026;53.612;7.278;2023-05-24T10:04:01;12.13;;;3.40;;
5995;SDS011;3026;53.612;7.278;2023-05-24T10:06:31;7.40;;;3.10;;
5995;SDS011;3026;53.612;7.278;2023-05-24T10:09:02;7.67;;;3.17;;
5995;SDS011;3026;53.612;7.278;2023-05-24T10:11:32;15.93;;;3.47;;
5995;SDS011;3026;53.612;7.278;2023-05-24T10:14:01;9.33;;;3.03;;
5995;SDS011;3026;53.612;7.278;2023-05-24T10:16:30;8.73;;;3.27;;
5995;SDS011;3026;53.612;7.278;2023-05-24T10:18:56;10.67;;;3.53;;
5995;SDS011;3026;53.612;7.278;2023-05-24T10:21:25;8.90;;;3.40;;
5995;SDS011;3026;53.612;7.278;2023-05-24T10:23:57;12.60;;;3.87;;
5995;SDS011;3026;53.612;7.278;2023-05-24T10:26:31;11.40;;;3.60;;
5995;SDS011;3026;53.612;7.278;2023-05-24T10:29:03;13.37;;;3.33;;
5995;SDS011;3026;53.612;7.278;2023-05-24T10:31:33;10.67;;;3.00;;
5995;SDS011;3026;53.612;7.278;2023-05-24T10:34:04;7.17;;;2.83;;
5995;SDS011;3026;53.612;7.278;2023-05-24T10:36:34;7.87;;;2.47;;
5995;SDS011;3026;53.612;7.278;2023-05-24T10:39:06;6.83;;;2.83;;
5995;SDS011;3026;53.612;7.278;2023-05-24T10:41:40;9.83;;;2.70;;
5995;SDS011;3026;53.612;7.278;2023-05-24T10:44:10;9.97;;;3.20;;
5995;SDS011;3026;53.612;7.278;2023-05-24T10:49:34;8.23;;;2.73;;
5995;SDS011;3026;53.612;7.278;2023-05-24T10:52:07;10.47;;;2.93;;
5995;SDS011;3026;53.612;7.278;2023-05-24T10:54:35;7.20;;;2.80;;
5995;SDS011;3026;53.612;7.278;2023-05-24T10:57:05;9.63;;;2.63;;
5995;SDS011;3026;53.612;7.278;2023-05-24T10:59:35;8.60;;;3.70;;
5995;SDS011;3026;53.612;7.278;2023-05-24T11:02:08;10.03;;;2.80;;
5995;SDS011;3026;53.612;7.278;2023-05-24T11:04:38;10.43;;;2.83;;
5995;SDS011;3026;53.612;7.278;2023-05-24T11:07:08;9.43;;;2.87;;
5995;SDS011;3026;53.612;7.278;2023-05-24T11:09:40;10.87;;;3.00;;
5995;SDS011;3026;53.612;7.278;2023-05-24T11:12:13;9.90;;;2.97;;
5995;SDS011;3026;53.612;7.278;2023-05-24T11:14:46;9.27;;;2.67;;
5995;SDS011;3026;53.612;7.278;2023-05-24T11:17:14;9.97;;;2.90;;
5995;SDS011;3026;53.612;7.278;2023-05-24T11:19:45;8.87;;;2.57;;
5995;SDS011;3026;53.612;7.278;2023-05-24T11:22:14;7.83;;;2.80;;
5995;SDS011;3026;53.612;7.278;2023-05-24T11:24:41;7.10;;;2.90;;
5995;SDS011;3026;53.612;7.278;2023-05-24T11:27:10;8.27;;;2.47;;
5995;SDS011;3026;53.612;7.278;2023-05-24T11:29:40;4.50;;;2.47;;
5995;SDS011;3026;53.612;7.278;2023-05-24T11:32:07;11.57;;;3.07;;
5995;SDS011;3026;53.612;7.278;2023-05-24T11:34:34;8.10;;;2.80;;
5995;SDS011;3026;53.612;7.278;2023-05-24T11:37:01;10.97;;;2.90;;
5995;SDS011;3026;53.612;7.278;2023-05-24T11:39:32;8.37;;;2.90;;
5995;SDS011;3026;53.612;7.278;2023-05-24T11:41:59;5.97;;;3.27;;
5995;SDS011;3026;53.612;7.278;2023-05-24T11:44:30;6.83;;;2.63;;
5995;SDS011;3026;53.612;7.278;2023-05-24T11:46:57;10.40;;;3.23;;
5995;SDS011;3026;53.612;7.278;2023-05-24T11:49:25;7.27;;;2.73;;
5995;SDS011;3026;53.612;7.278;2023-05-24T11:51:53;8.90;;;2.70;;
5995;SDS011;3026;53.612;7.278;2023-05-24T11:54:21;10.47;;;2.87;;
5995;SDS011;3026;53.612;7.278;2023-05-24T11:56:50;3.60;;;2.40;;
5995;SDS011;3026;53.612;7.278;2023-05-24T11:59:20;7.23;;;2.83;;
5995;SDS011;3026;53.612;7.278;2023-05-24T12:01:49;11.17;;;3.10;;
5995;SDS011;3026;53.612;7.278;2023-05-24T12:04:22;5.43;;;2.43;;
5995;SDS011;3026;53.612;7.278;2023-05-24T12:06:48;9.63;;;2.73;;
5995;SDS011;3026;53.612;7.278;2023-05-24T12:09:15;11.57;;;3.53;;
5995;SDS011;3026;53.612;7.278;2023-05-24T12:11:45;6.07;;;2.80;;
5995;SDS011;3026;53.612;7.278;2023-05-24T12:14:14;6.00;;;2.60;;
5995;SDS011;3026;53.612;7.278;2023-05-24T12:16:42;9.10;;;2.80;;
5995;SDS011;3026;53.612;7.278;2023-05-24T12:19:17;8.67;;;2.80;;
5995;SDS011;3026;53.612;7.278;2023-05-24T12:21:44;10.67;;;2.70;;
5995;SDS011;3026;53.612;7.278;2023-05-24T12:24:13;5.67;;;2.27;;
5995;SDS011;3026;53.612;7.278;2023-05-24T12:26:41;6.37;;;2.43;;
5995;SDS011;3026;53.612;7.278;2023-05-24T12:29:09;9.17;;;2.70;;
5995;SDS011;3026;53.612;7.278;2023-05-24T12:31:39;8.53;;;2.77;;
5995;SDS011;3026;53.612;7.278;2023-05-24T12:34:09;9.47;;;2.63;;
5995;SDS011;3026;53.612;7.278;2023-05-24T12:36:37;12.07;;;3.40;;
5995;SDS011;3026;53.612;7.278;2023-05-24T12:39:16;7.97;;;3.40;;
5995;SDS011;3026;53.612;7.278;2023-05-24T12:41:44;6.03;;;3.07;;
5995;SDS011;3026;53.612;7.278;2023-05-24T12:44:26;6.63;;;2.33;;
5995;SDS011;3026;53.612;7.278;2023-05-24T12:46:56;8.27;;;3.00;;
5995;SDS011;3026;53.612;7.278;2023-05-24T12:49:24;8.30;;;2.77;;
5995;SDS011;3026;53.612;7.278;2023-05-24T12:51:52;6.10;;;2.70;;
5995;SDS011;3026;53.612;7.278;2023-05-24T12:54:21;9.07;;;3.13;;
5995;SDS011;3026;53.612;7.278;2023-05-24T12:56:48;9.70;;;3.00;;
5995;SDS011;3026;53.612;7.278;2023-05-24T12:59:15;7.20;;;2.77;;
5995;SDS011;3026;53.612;7.278;2023-05-24T13:01:42;13.47;;;3.07;;
5995;SDS011;3026;53.612;7.278;2023-05-24T13:04:16;11.07;;;3.70;;
5995;SDS011;3026;53.612;7.278;2023-05-24T13:06:43;7.83;;;2.73;;
5995;SDS011;3026;53.612;7.278;2023-05-24T13:09:10;13.47;;;3.57;;
5995;SDS011;3026;53.612;7.278;2023-05-24T13:11:38;11.23;;;3.63;;
5995;SDS011;3026;53.612;7.278;2023-05-24T13:14:05;9.10;;;3.30;;
5995;SDS011;3026;53.612;7.278;2023-05-24T13:16:31;11.97;;;3.07;;
5995;SDS011;3026;53.612;7.278;2023-05-24T13:18:59;6.03;;;2.90;;
5995;SDS011;3026;53.612;7.278;2023-05-24T13:21:27;14.83;;;3.63;;
5995;SDS011;3026;53.612;7.278;2023-05-24T13:23:54;8.63;;;3.50;;
5995;SDS011;3026;53.612;7.278;2023-05-24T13:26:21;13.83;;;3.53;;
5995;SDS011;3026;53.612;7.278;2023-05-24T13:28:48;8.93;;;3.53;;
5995;SDS011;3026;53.612;7.278;2023-05-24T13:31:15;10.10;;;3.83;;
5995;SDS011;3026;53.612;7.278;2023-05-24T13:33:42;13.53;;;4.40;;
5995;SDS011;3026;53.612;7.278;2023-05-24T13:36:09;11.57;;;3.50;;
5995;SDS011;3026;53.612;7.278;2023-05-24T13:38:37;14.13;;;3.57;;
5995;SDS011;3026;53.612;7.278;2023-05-24T13:41:04;9.53;;;3.50;;
5995;SDS011;3026;53.612;7.278;2023-05-24T13:43:31;12.70;;;4.13;;
5995;SDS011;3026;53.612;7.278;2023-05-24T13:45:58;10.30;;;3.27;;
5995;SDS011;3026;53.612;7.278;2023-05-24T13:48:25;9.60;;;3.57;;
5995;SDS011;3026;53.612;7.278;2023-05-24T13:50:52;15.97;;;3.57;;
5995;SDS011;3026;53.612;7.278;2023-05-24T13:53:19;9.20;;;3.23;;
5995;SDS011;3026;53.612;7.278;2023-05-24T13:55:48;12.57;;;3.57;;
5995;SDS011;3026;53.612;7.278;2023-05-24T13:58:14;14.17;;;3.77;;
5995;SDS011;3026;53.612;7.278;2023-05-24T14:00:41;11.73;;;4.43;;
5995;SDS011;3026;53.612;7.278;2023-05-24T14:03:08;13.07;;;3.30;;
5995;SDS011;3026;53.612;7.278;2023-05-24T14:05:37;10.93;;;3.37;;
5995;SDS011;3026;53.612;7.278;2023-05-24T14:08:04;12.67;;;3.60;;
5995;SDS011;3026;53.612;7.278;2023-05-24T14:10:32;12.10;;;3.37;;
5995;SDS011;3026;53.612;7.278;2023-05-24T14:13:02;15.93;;;3.17;;
5995;SDS011;3026;53.612;7.278;2023-05-24T14:15:29;10.07;;;3.37;;
5995;SDS011;3026;53.612;7.278;2023-05-24T14:17:56;8.17;;;3.40;;
5995;SDS011;3026;53.612;7.278;2023-05-24T14:20:24;10.93;;;4.17;;
5995;SDS011;3026;53.612;7.278;2023-05-24T14:22:51;9.57;;;3.07;;
5995;SDS011;3026;53.612;7.278;2023-05-24T14:25:18;14.73;;;3.47;;
5995;SDS011;3026;53.612;7.278;2023-05-24T14:27:45;10.60;;;3.23;;
5995;SDS011;3026;53.612;7.278;2023-05-24T14:30:13;8.07;;;3.27;;
5995;SDS011;3026;53.612;7.278;2023-05-24T14:32:40;11.00;;;3.20;;
5995;SDS011;3026;53.612;7.278;2023-05-24T14:35:07;11.90;;;3.00;;
5995;SDS011;3026;53.612;7.278;2023-05-24T14:37:34;12.27;;;3.07;;
5995;SDS011;3026;53.612;7.278;2023-05-24T14:40:01;10.20;;;3.40;;
5995;SDS011;3026;53.612;7.278;2023-05-24T14:42:28;7.47;;;2.80;;
5995;SDS011;3026;53.612;7.278;2023-05-24T14:44:55;9.10;;;3.27;;
5995;SDS011;3026;53.612;7.278;2023-05-24T14:47:23;9.97;;;3.00;;
5995;SDS011;3026;53.612;7.278;2023-05-24T14:49:50;12.07;;;3.60;;
5995;SDS011;3026;53.612;7.278;2023-05-24T14:52:17;7.53;;;3.17;;
5995;SDS011;3026;53.612;7.278;2023-05-24T14:54:44;7.50;;;3.27;;
5995;SDS011;3026;53.612;7.278;2023-05-24T14:57:11;14.23;;;3.73;;
5995;SDS011;3026;53.612;7.278;2023-05-24T14:59:37;12.73;;;3.57;;
5995;SDS011;3026;53.612;7.278;2023-05-24T15:02:04;12.93;;;3.30;;
5995;SDS011;3026;53.612;7.278;2023-05-24T15:04:33;12.77;;;4.00;;
5995;SDS011;3026;53.612;7.278;2023-05-24T15:07:00;10.40;;;2.87;;
5995;SDS011;3026;53.612;7.278;2023-05-24T15:09:27;15.63;;;3.63;;
5995;SDS011;3026;53.612;7.278;2023-05-24T15:11:54;10.60;;;3.47;;
5995;SDS011;3026;53.612;7.278;2023-05-24T15:14:20;10.60;;;2.73;;
5995;SDS011;3026;53.612;7.278;2023-05-24T15:16:47;9.20;;;3.23;;